Macon, Georgia
Current Conditions -  °F | °C
As of 12:53 AM on Saturday 25 Oct 2014 (Local Time) from KMCN Reporting Station
Clear Clear  
Wind Chill: 48°   Ceiling: Unl
Heat Index: 48°   Visibility: 10mi
Dew Point: 47°   Wind: 3mph
Humidity: 96%   Direction: 270°W
Pressure: 30.02"   Gusts: NA
Location:  32.84°N, 83.64°W
Report Text: KMCN 250453Z AUTO 27003KT 10SM CLR 09/08 A3002 RMK AO2 SLP162 T00890083 402440061 TSNO
Loading
Personal Weather Stations






























Interactive Weather Map
Tropical Storm Tracking
New forecast layout! Learn more

10-Day Weather Forecast

Advertisements
Track Severe Weather on mobile